To NAV CANADA Home Page Login to a new session Search on AWWS site Feedback and Comments Disclaimer Vers la page française équivalente Tips FAQ What's new on the site To the Forecasts and Observations / NOTAM section To "File a Flight Plan" website Publications and other links Update of the User's profile FIC Telephone Numbers My Weather Data Folder Route Weather Data Regional Weather Data Local Weather Data To the Forecasts and Observations / NOTAM section
Request Generated 05/03/2016 at 22:04:42 UTC . Weather information available at that time is displayed.

METAR/TAF

BURWASH/YT    

METAR CYDB 032200Z 11011KT 30SM FEW060 FEW100 09/M09 A2976 RMK CU1AC1
CLIMAT 10.0/-3.0/0.0 LAST STFD OBS/NXT 041400Z SLP108 DENSITY ALT
2700FT=
METAR CYDB 032100Z 12011KT 30SM FEW060 FEW100 09/M09 A2976 RMK CU1AC1
SLP110 DENSITY ALT 2700FT=
METAR CYDB 032000Z 12009G15KT 30SM FEW060 FEW100 08/M09 A2977 RMK
CU1AC1 SLP114=

TAF CYDB 031739Z 0318/0406 12012G22KT P6SM FEW120 SCT220
BECMG 0402/0404 12005KT
RMK NXT FCST BY 040000Z=
Your time UTC time
Weather data provided by Environment Canada and NAV CANADA